sensor_id;sensor_type;location;lat;lon;timestamp;P1;durP1;ratioP1;P2;durP2;ratioP2
3726;SDS011;1879;45.876;12.300;2022-10-24T00:01:17;12.03;;;10.83;;
3726;SDS011;1879;45.876;12.300;2022-10-24T00:03:47;15.07;;;11.57;;
3726;SDS011;1879;45.876;12.300;2022-10-24T00:06:14;17.50;;;11.13;;
3726;SDS011;1879;45.876;12.300;2022-10-24T00:08:42;13.77;;;11.60;;
3726;SDS011;1879;45.876;12.300;2022-10-24T00:11:09;14.83;;;11.60;;
3726;SDS011;1879;45.876;12.300;2022-10-24T00:13:39;12.83;;;11.50;;
3726;SDS011;1879;45.876;12.300;2022-10-24T00:16:07;20.17;;;12.03;;
3726;SDS011;1879;45.876;12.300;2022-10-24T00:18:35;12.23;;;11.03;;
3726;SDS011;1879;45.876;12.300;2022-10-24T00:21:03;14.63;;;11.70;;
3726;SDS011;1879;45.876;12.300;2022-10-24T00:23:31;15.07;;;13.10;;
3726;SDS011;1879;45.876;12.300;2022-10-24T00:25:58;14.53;;;12.90;;
3726;SDS011;1879;45.876;12.300;2022-10-24T00:28:28;15.33;;;11.40;;
3726;SDS011;1879;45.876;12.300;2022-10-24T00:30:55;13.73;;;12.07;;
3726;SDS011;1879;45.876;12.300;2022-10-24T00:33:23;14.57;;;12.70;;
3726;SDS011;1879;45.876;12.300;2022-10-24T00:35:50;14.80;;;13.20;;
3726;SDS011;1879;45.876;12.300;2022-10-24T00:38:18;18.20;;;13.17;;
3726;SDS011;1879;45.876;12.300;2022-10-24T00:40:45;23.53;;;13.47;;
3726;SDS011;1879;45.876;12.300;2022-10-24T00:43:13;16.17;;;14.47;;
3726;SDS011;1879;45.876;12.300;2022-10-24T00:45:43;17.30;;;13.93;;
3726;SDS011;1879;45.876;12.300;2022-10-24T00:48:18;15.03;;;12.10;;
3726;SDS011;1879;45.876;12.300;2022-10-24T00:50:51;16.43;;;12.37;;
3726;SDS011;1879;45.876;12.300;2022-10-24T00:53:23;14.93;;;12.47;;
3726;SDS011;1879;45.876;12.300;2022-10-24T00:55:52;14.40;;;12.67;;
3726;SDS011;1879;45.876;12.300;2022-10-24T00:58:22;19.30;;;13.43;;
3726;SDS011;1879;45.876;12.300;2022-10-24T01:00:52;16.17;;;13.57;;
3726;SDS011;1879;45.876;12.300;2022-10-24T01:03:20;13.90;;;12.03;;
3726;SDS011;1879;45.876;12.300;2022-10-24T01:05:51;19.63;;;14.17;;
3726;SDS011;1879;45.876;12.300;2022-10-24T01:08:32;19.53;;;14.40;;
3726;SDS011;1879;45.876;12.300;2022-10-24T01:11:09;16.77;;;14.87;;
3726;SDS011;1879;45.876;12.300;2022-10-24T01:13:51;15.83;;;14.20;;
3726;SDS011;1879;45.876;12.300;2022-10-24T01:16:26;16.70;;;13.40;;
3726;SDS011;1879;45.876;12.300;2022-10-24T01:19:00;17.97;;;13.90;;
3726;SDS011;1879;45.876;12.300;2022-10-24T01:21:34;19.53;;;14.20;;
3726;SDS011;1879;45.876;12.300;2022-10-24T01:24:28;17.77;;;14.27;;
3726;SDS011;1879;45.876;12.300;2022-10-24T01:27:16;14.37;;;12.83;;
3726;SDS011;1879;45.876;12.300;2022-10-24T01:30:03;16.87;;;13.90;;
3726;SDS011;1879;45.876;12.300;2022-10-24T01:32:35;17.50;;;13.07;;
3726;SDS011;1879;45.876;12.300;2022-10-24T01:35:23;20.97;;;12.90;;
3726;SDS011;1879;45.876;12.300;2022-10-24T01:38:00;15.50;;;12.20;;
3726;SDS011;1879;45.876;12.300;2022-10-24T01:40:33;14.20;;;12.70;;
3726;SDS011;1879;45.876;12.300;2022-10-24T01:43:08;13.87;;;11.87;;
3726;SDS011;1879;45.876;12.300;2022-10-24T01:45:39;16.00;;;12.00;;
3726;SDS011;1879;45.876;12.300;2022-10-24T01:48:11;12.57;;;11.20;;
3726;SDS011;1879;45.876;12.300;2022-10-24T01:50:41;17.03;;;12.23;;
3726;SDS011;1879;45.876;12.300;2022-10-24T01:53:10;13.63;;;11.70;;
3726;SDS011;1879;45.876;12.300;2022-10-24T01:55:39;17.80;;;12.80;;
3726;SDS011;1879;45.876;12.300;2022-10-24T01:58:07;14.50;;;12.60;;
3726;SDS011;1879;45.876;12.300;2022-10-24T02:00:34;16.77;;;13.33;;
3726;SDS011;1879;45.876;12.300;2022-10-24T02:03:03;15.03;;;13.20;;
3726;SDS011;1879;45.876;12.300;2022-10-24T02:05:37;19.93;;;12.60;;
3726;SDS011;1879;45.876;12.300;2022-10-24T02:08:09;14.23;;;12.30;;
3726;SDS011;1879;45.876;12.300;2022-10-24T02:10:40;13.70;;;12.27;;
3726;SDS011;1879;45.876;12.300;2022-10-24T02:13:12;14.73;;;13.23;;
3726;SDS011;1879;45.876;12.300;2022-10-24T02:15:45;16.33;;;13.53;;
3726;SDS011;1879;45.876;12.300;2022-10-24T02:18:19;17.80;;;12.40;;
3726;SDS011;1879;45.876;12.300;2022-10-24T02:20:49;14.10;;;11.30;;
3726;SDS011;1879;45.876;12.300;2022-10-24T02:23:23;13.00;;;11.70;;
3726;SDS011;1879;45.876;12.300;2022-10-24T02:25:53;13.20;;;11.80;;
3726;SDS011;1879;45.876;12.300;2022-10-24T02:28:23;14.97;;;12.00;;
3726;SDS011;1879;45.876;12.300;2022-10-24T02:30:56;17.43;;;10.90;;
3726;SDS011;1879;45.876;12.300;2022-10-24T02:33:29;12.60;;;10.23;;
3726;SDS011;1879;45.876;12.300;2022-10-24T02:35:57;18.67;;;11.17;;
3726;SDS011;1879;45.876;12.300;2022-10-24T02:38:26;16.17;;;11.07;;
3726;SDS011;1879;45.876;12.300;2022-10-24T02:40:56;15.33;;;11.43;;
3726;SDS011;1879;45.876;12.300;2022-10-24T02:43:25;13.47;;;10.83;;
3726;SDS011;1879;45.876;12.300;2022-10-24T02:45:54;13.17;;;11.33;;
3726;SDS011;1879;45.876;12.300;2022-10-24T02:48:24;13.10;;;11.60;;
3726;SDS011;1879;45.876;12.300;2022-10-24T02:50:55;17.30;;;12.70;;
3726;SDS011;1879;45.876;12.300;2022-10-24T02:53:23;15.80;;;11.73;;
3726;SDS011;1879;45.876;12.300;2022-10-24T02:55:51;14.27;;;11.80;;
3726;SDS011;1879;45.876;12.300;2022-10-24T02:58:18;13.83;;;12.40;;
3726;SDS011;1879;45.876;12.300;2022-10-24T03:00:45;19.13;;;13.40;;
3726;SDS011;1879;45.876;12.300;2022-10-24T03:03:13;17.40;;;13.10;;
3726;SDS011;1879;45.876;12.300;2022-10-24T03:05:40;16.03;;;11.87;;
3726;SDS011;1879;45.876;12.300;2022-10-24T03:08:08;19.07;;;12.70;;
3726;SDS011;1879;45.876;12.300;2022-10-24T03:10:35;15.80;;;12.20;;
3726;SDS011;1879;45.876;12.300;2022-10-24T03:13:02;15.33;;;12.80;;
3726;SDS011;1879;45.876;12.300;2022-10-24T03:15:29;15.17;;;12.43;;
3726;SDS011;1879;45.876;12.300;2022-10-24T03:17:56;21.73;;;12.17;;
3726;SDS011;1879;45.876;12.300;2022-10-24T03:20:23;17.03;;;12.40;;
3726;SDS011;1879;45.876;12.300;2022-10-24T03:22:50;15.47;;;13.23;;
3726;SDS011;1879;45.876;12.300;2022-10-24T03:25:19;18.77;;;12.43;;
3726;SDS011;1879;45.876;12.300;2022-10-24T03:27:46;21.53;;;13.00;;
3726;SDS011;1879;45.876;12.300;2022-10-24T03:30:13;17.67;;;13.07;;
3726;SDS011;1879;45.876;12.300;2022-10-24T03:32:39;15.43;;;11.80;;
3726;SDS011;1879;45.876;12.300;2022-10-24T03:35:07;17.00;;;11.67;;
3726;SDS011;1879;45.876;12.300;2022-10-24T03:37:34;13.70;;;11.00;;
3726;SDS011;1879;45.876;12.300;2022-10-24T03:40:02;15.20;;;13.63;;
3726;SDS011;1879;45.876;12.300;2022-10-24T03:42:31;18.20;;;12.90;;
3726;SDS011;1879;45.876;12.300;2022-10-24T03:44:58;15.57;;;13.07;;
3726;SDS011;1879;45.876;12.300;2022-10-24T03:47:25;17.30;;;12.63;;
3726;SDS011;1879;45.876;12.300;2022-10-24T03:49:52;14.90;;;12.27;;
3726;SDS011;1879;45.876;12.300;2022-10-24T03:52:19;18.47;;;13.10;;
3726;SDS011;1879;45.876;12.300;2022-10-24T03:54:46;23.30;;;12.83;;
3726;SDS011;1879;45.876;12.300;2022-10-24T03:57:13;19.70;;;13.70;;
3726;SDS011;1879;45.876;12.300;2022-10-24T03:59:42;13.70;;;12.37;;
3726;SDS011;1879;45.876;12.300;2022-10-24T04:02:09;17.20;;;13.70;;
3726;SDS011;1879;45.876;12.300;2022-10-24T04:04:37;14.73;;;11.70;;
3726;SDS011;1879;45.876;12.300;2022-10-24T04:07:06;16.10;;;12.00;;
3726;SDS011;1879;45.876;12.300;2022-10-24T04:09:33;15.73;;;12.47;;
3726;SDS011;1879;45.876;12.300;2022-10-24T04:12:00;13.87;;;11.13;;
3726;SDS011;1879;45.876;12.300;2022-10-24T04:14:27;14.10;;;10.90;;
3726;SDS011;1879;45.876;12.300;2022-10-24T04:16:56;14.87;;;10.90;;
3726;SDS011;1879;45.876;12.300;2022-10-24T04:19:23;14.53;;;10.13;;
3726;SDS011;1879;45.876;12.300;2022-10-24T04:21:51;20.23;;;9.23;;
3726;SDS011;1879;45.876;12.300;2022-10-24T04:24:18;9.93;;;9.00;;
3726;SDS011;1879;45.876;12.300;2022-10-24T04:26:45;12.30;;;9.40;;
3726;SDS011;1879;45.876;12.300;2022-10-24T04:29:12;12.40;;;9.40;;
3726;SDS011;1879;45.876;12.300;2022-10-24T04:31:41;14.77;;;10.17;;
3726;SDS011;1879;45.876;12.300;2022-10-24T04:34:10;12.33;;;9.10;;
3726;SDS011;1879;45.876;12.300;2022-10-24T04:36:36;15.73;;;11.37;;
3726;SDS011;1879;45.876;12.300;2022-10-24T04:39:03;12.57;;;10.43;;
3726;SDS011;1879;45.876;12.300;2022-10-24T04:41:31;13.00;;;9.93;;
3726;SDS011;1879;45.876;12.300;2022-10-24T04:43:58;19.40;;;10.13;;
3726;SDS011;1879;45.876;12.300;2022-10-24T04:46:25;12.80;;;10.53;;
3726;SDS011;1879;45.876;12.300;2022-10-24T04:48:52;17.50;;;11.00;;
3726;SDS011;1879;45.876;12.300;2022-10-24T04:51:20;12.93;;;11.37;;
3726;SDS011;1879;45.876;12.300;2022-10-24T04:53:47;13.33;;;10.40;;
3726;SDS011;1879;45.876;12.300;2022-10-24T04:56:14;18.43;;;13.00;;
3726;SDS011;1879;45.876;12.300;2022-10-24T04:58:42;19.30;;;14.50;;
3726;SDS011;1879;45.876;12.300;2022-10-24T05:01:09;12.43;;;11.13;;
3726;SDS011;1879;45.876;12.300;2022-10-24T05:03:36;15.77;;;11.57;;
3726;SDS011;1879;45.876;12.300;2022-10-24T05:06:03;13.40;;;10.70;;
3726;SDS011;1879;45.876;12.300;2022-10-24T05:08:32;13.13;;;11.03;;
3726;SDS011;1879;45.876;12.300;2022-10-24T05:10:59;16.60;;;11.53;;
3726;SDS011;1879;45.876;12.300;2022-10-24T05:13:26;13.67;;;11.30;;
3726;SDS011;1879;45.876;12.300;2022-10-24T05:15:53;11.83;;;10.30;;
3726;SDS011;1879;45.876;12.300;2022-10-24T05:18:20;16.20;;;10.40;;
3726;SDS011;1879;45.876;12.300;2022-10-24T05:20:47;15.10;;;12.20;;
3726;SDS011;1879;45.876;12.300;2022-10-24T05:23:13;13.93;;;11.47;;
3726;SDS011;1879;45.876;12.300;2022-10-24T05:25:42;15.43;;;11.50;;
3726;SDS011;1879;45.876;12.300;2022-10-24T05:28:09;13.87;;;11.00;;
3726;SDS011;1879;45.876;12.300;2022-10-24T05:30:36;15.97;;;11.50;;
3726;SDS011;1879;45.876;12.300;2022-10-24T05:33:03;16.23;;;12.80;;
3726;SDS011;1879;45.876;12.300;2022-10-24T05:35:30;13.70;;;11.33;;
3726;SDS011;1879;45.876;12.300;2022-10-24T05:37:57;13.30;;;11.47;;
3726;SDS011;1879;45.876;12.300;2022-10-24T05:40:24;21.70;;;11.40;;
3726;SDS011;1879;45.876;12.300;2022-10-24T05:42:52;16.40;;;11.50;;
3726;SDS011;1879;45.876;12.300;2022-10-24T05:45:19;14.30;;;12.10;;
3726;SDS011;1879;45.876;12.300;2022-10-24T05:47:48;17.37;;;11.47;;
3726;SDS011;1879;45.876;12.300;2022-10-24T05:50:15;14.00;;;10.70;;
3726;SDS011;1879;45.876;12.300;2022-10-24T05:52:43;15.13;;;11.77;;
3726;SDS011;1879;45.876;12.300;2022-10-24T05:55:12;14.60;;;10.87;;
3726;SDS011;1879;45.876;12.300;2022-10-24T05:57:39;13.93;;;11.10;;
3726;SDS011;1879;45.876;12.300;2022-10-24T06:00:10;19.60;;;10.60;;
3726;SDS011;1879;45.876;12.300;2022-10-24T06:02:38;13.00;;;11.27;;
3726;SDS011;1879;45.876;12.300;2022-10-24T06:05:05;15.67;;;12.47;;
3726;SDS011;1879;45.876;12.300;2022-10-24T06:07:33;16.33;;;12.30;;
3726;SDS011;1879;45.876;12.300;2022-10-24T06:10:01;17.47;;;10.67;;
3726;SDS011;1879;45.876;12.300;2022-10-24T06:12:29;12.93;;;11.30;;
3726;SDS011;1879;45.876;12.300;2022-10-24T06:14:57;16.80;;;12.87;;
3726;SDS011;1879;45.876;12.300;2022-10-24T06:17:26;18.20;;;11.13;;
3726;SDS011;1879;45.876;12.300;2022-10-24T06:19:53;15.57;;;11.50;;
3726;SDS011;1879;45.876;12.300;2022-10-24T06:22:20;12.87;;;10.47;;
3726;SDS011;1879;45.876;12.300;2022-10-24T06:24:49;15.43;;;11.90;;
3726;SDS011;1879;45.876;12.300;2022-10-24T06:27:16;17.70;;;11.80;;
3726;SDS011;1879;45.876;12.300;2022-10-24T06:29:43;12.70;;;10.83;;
3726;SDS011;1879;45.876;12.300;2022-10-24T06:32:10;14.93;;;11.60;;
3726;SDS011;1879;45.876;12.300;2022-10-24T06:34:38;17.03;;;12.50;;
3726;SDS011;1879;45.876;12.300;2022-10-24T06:37:05;13.37;;;10.57;;
3726;SDS011;1879;45.876;12.300;2022-10-24T06:39:32;18.30;;;11.37;;
3726;SDS011;1879;45.876;12.300;2022-10-24T06:42:00;16.30;;;11.50;;
3726;SDS011;1879;45.876;12.300;2022-10-24T06:44:27;17.63;;;12.47;;
3726;SDS011;1879;45.876;12.300;2022-10-24T06:46:54;19.63;;;12.97;;
3726;SDS011;1879;45.876;12.300;2022-10-24T06:49:21;17.73;;;12.37;;
3726;SDS011;1879;45.876;12.300;2022-10-24T06:51:49;14.93;;;11.90;;
3726;SDS011;1879;45.876;12.300;2022-10-24T06:54:17;15.27;;;10.73;;
3726;SDS011;1879;45.876;12.300;2022-10-24T06:56:44;12.63;;;11.27;;
3726;SDS011;1879;45.876;12.300;2022-10-24T06:59:12;12.33;;;10.83;;
3726;SDS011;1879;45.876;12.300;2022-10-24T07:01:41;11.20;;;10.10;;
3726;SDS011;1879;45.876;12.300;2022-10-24T07:04:08;15.60;;;12.00;;
3726;SDS011;1879;45.876;12.300;2022-10-24T07:06:35;12.70;;;10.63;;
3726;SDS011;1879;45.876;12.300;2022-10-24T07:09:04;16.07;;;11.03;;
3726;SDS011;1879;45.876;12.300;2022-10-24T07:11:31;12.60;;;11.37;;
3726;SDS011;1879;45.876;12.300;2022-10-24T07:13:58;13.63;;;11.80;;
3726;SDS011;1879;45.876;12.300;2022-10-24T07:16:25;13.67;;;11.90;;
3726;SDS011;1879;45.876;12.300;2022-10-24T07:18:52;17.47;;;12.17;;
3726;SDS011;1879;45.876;12.300;2022-10-24T07:21:20;12.27;;;11.17;;
3726;SDS011;1879;45.876;12.300;2022-10-24T07:23:49;13.20;;;11.90;;
3726;SDS011;1879;45.876;12.300;2022-10-24T07:26:18;19.77;;;13.40;;
3726;SDS011;1879;45.876;12.300;2022-10-24T07:28:46;15.80;;;12.37;;
3726;SDS011;1879;45.876;12.300;2022-10-24T07:31:17;18.87;;;12.77;;
3726;SDS011;1879;45.876;12.300;2022-10-24T07:33:45;15.30;;;12.10;;
3726;SDS011;1879;45.876;12.300;2022-10-24T07:36:14;14.30;;;12.83;;
3726;SDS011;1879;45.876;12.300;2022-10-24T07:38:42;17.33;;;13.77;;
3726;SDS011;1879;45.876;12.300;2022-10-24T07:41:10;15.53;;;14.00;;
3726;SDS011;1879;45.876;12.300;2022-10-24T07:43:38;17.63;;;14.80;;
3726;SDS011;1879;45.876;12.300;2022-10-24T07:46:05;19.60;;;15.03;;
3726;SDS011;1879;45.876;12.300;2022-10-24T07:48:33;16.97;;;15.17;;
3726;SDS011;1879;45.876;12.300;2022-10-24T07:51:03;14.90;;;13.37;;
3726;SDS011;1879;45.876;12.300;2022-10-24T07:53:31;15.70;;;14.10;;
3726;SDS011;1879;45.876;12.300;2022-10-24T07:55:58;16.90;;;15.10;;
3726;SDS011;1879;45.876;12.300;2022-10-24T07:58:26;19.53;;;15.77;;
3726;SDS011;1879;45.876;12.300;2022-10-24T08:00:55;17.13;;;14.53;;
3726;SDS011;1879;45.876;12.300;2022-10-24T08:03:28;20.43;;;14.50;;
3726;SDS011;1879;45.876;12.300;2022-10-24T08:05:55;18.90;;;16.07;;
3726;SDS011;1879;45.876;12.300;2022-10-24T08:08:22;21.43;;;18.13;;
3726;SDS011;1879;45.876;12.300;2022-10-24T08:10:49;21.00;;;18.47;;
3726;SDS011;1879;45.876;12.300;2022-10-24T08:13:16;25.07;;;18.27;;
3726;SDS011;1879;45.876;12.300;2022-10-24T08:15:43;24.60;;;17.60;;
3726;SDS011;1879;45.876;12.300;2022-10-24T08:18:11;25.80;;;18.30;;
3726;SDS011;1879;45.876;12.300;2022-10-24T08:20:38;25.80;;;18.80;;
3726;SDS011;1879;45.876;12.300;2022-10-24T08:23:06;21.00;;;18.70;;
3726;SDS011;1879;45.876;12.300;2022-10-24T08:25:33;25.03;;;19.77;;
3726;SDS011;1879;45.876;12.300;2022-10-24T08:28:00;28.83;;;19.30;;
3726;SDS011;1879;45.876;12.300;2022-10-24T08:30:26;24.53;;;20.43;;
3726;SDS011;1879;45.876;12.300;2022-10-24T08:32:53;30.00;;;22.63;;
3726;SDS011;1879;45.876;12.300;2022-10-24T08:35:22;32.97;;;22.47;;
3726;SDS011;1879;45.876;12.300;2022-10-24T08:37:49;30.57;;;22.73;;
3726;SDS011;1879;45.876;12.300;2022-10-24T08:40:17;25.93;;;21.40;;
3726;SDS011;1879;45.876;12.300;2022-10-24T08:42:45;33.20;;;23.60;;
3726;SDS011;1879;45.876;12.300;2022-10-24T08:45:15;28.97;;;23.60;;
3726;SDS011;1879;45.876;12.300;2022-10-24T08:47:45;25.43;;;21.20;;
3726;SDS011;1879;45.876;12.300;2022-10-24T08:50:23;28.87;;;23.50;;
3726;SDS011;1879;45.876;12.300;2022-10-24T08:52:54;33.87;;;25.53;;
3726;SDS011;1879;45.876;12.300;2022-10-24T08:55:28;32.97;;;27.00;;
3726;SDS011;1879;45.876;12.300;2022-10-24T08:58:00;34.83;;;26.17;;
3726;SDS011;1879;45.876;12.300;2022-10-24T09:00:30;34.80;;;24.43;;
3726;SDS011;1879;45.876;12.300;2022-10-24T09:03:03;29.13;;;25.60;;
3726;SDS011;1879;45.876;12.300;2022-10-24T09:05:39;30.10;;;24.70;;
3726;SDS011;1879;45.876;12.300;2022-10-24T09:08:12;32.10;;;24.77;;
3726;SDS011;1879;45.876;12.300;2022-10-24T09:10:52;35.53;;;28.67;;
3726;SDS011;1879;45.876;12.300;2022-10-24T09:13:22;37.23;;;28.67;;
3726;SDS011;1879;45.876;12.300;2022-10-24T09:15:49;35.30;;;27.80;;
3726;SDS011;1879;45.876;12.300;2022-10-24T09:18:17;40.67;;;27.70;;
3726;SDS011;1879;45.876;12.300;2022-10-24T09:20:48;33.30;;;27.90;;
3726;SDS011;1879;45.876;12.300;2022-10-24T09:23:16;40.53;;;29.10;;
3726;SDS011;1879;45.876;12.300;2022-10-24T09:25:45;32.90;;;29.40;;
3726;SDS011;1879;45.876;12.300;2022-10-24T09:28:14;38.60;;;29.07;;
3726;SDS011;1879;45.876;12.300;2022-10-24T09:30:42;36.73;;;28.83;;
3726;SDS011;1879;45.876;12.300;2022-10-24T09:33:12;37.40;;;30.73;;
3726;SDS011;1879;45.876;12.300;2022-10-24T09:35:50;33.87;;;30.07;;
3726;SDS011;1879;45.876;12.300;2022-10-24T09:38:25;36.03;;;28.43;;
3726;SDS011;1879;45.876;12.300;2022-10-24T09:40:56;34.20;;;29.60;;
3726;SDS011;1879;45.876;12.300;2022-10-24T09:43:30;35.87;;;29.90;;
3726;SDS011;1879;45.876;12.300;2022-10-24T09:46:05;35.13;;;26.80;;
3726;SDS011;1879;45.876;12.300;2022-10-24T09:48:38;34.23;;;28.73;;
3726;SDS011;1879;45.876;12.300;2022-10-24T09:51:21;33.03;;;29.60;;
3726;SDS011;1879;45.876;12.300;2022-10-24T09:54:01;35.37;;;30.47;;
3726;SDS011;1879;45.876;12.300;2022-10-24T09:56:33;34.70;;;30.00;;
3726;SDS011;1879;45.876;12.300;2022-10-24T10:02:06;23.00;;;17.50;;
3726;SDS011;1879;45.876;12.300;2022-10-24T10:04:43;38.33;;;25.87;;
3726;SDS011;1879;45.876;12.300;2022-10-24T10:07:12;31.13;;;26.80;;
3726;SDS011;1879;45.876;12.300;2022-10-24T10:09:46;31.63;;;28.30;;
3726;SDS011;1879;45.876;12.300;2022-10-24T10:12:23;33.50;;;28.97;;
3726;SDS011;1879;45.876;12.300;2022-10-24T10:14:52;30.07;;;25.97;;
3726;SDS011;1879;45.876;12.300;2022-10-24T10:17:21;29.97;;;26.00;;
3726;SDS011;1879;45.876;12.300;2022-10-24T10:19:51;28.67;;;25.63;;
3726;SDS011;1879;45.876;12.300;2022-10-24T10:22:24;28.50;;;24.03;;
3726;SDS011;1879;45.876;12.300;2022-10-24T10:24:53;27.60;;;24.90;;
3726;SDS011;1879;45.876;12.300;2022-10-24T10:27:25;28.60;;;24.00;;
3726;SDS011;1879;45.876;12.300;2022-10-24T10:32:48;26.23;;;23.63;;
3726;SDS011;1879;45.876;12.300;2022-10-24T10:35:32;31.53;;;25.70;;
3726;SDS011;1879;45.876;12.300;2022-10-24T10:38:08;28.20;;;24.37;;
3726;SDS011;1879;45.876;12.300;2022-10-24T10:41:02;33.17;;;26.80;;
3726;SDS011;1879;45.876;12.300;2022-10-24T10:43:34;34.37;;;26.53;;
3726;SDS011;1879;45.876;12.300;2022-10-24T10:46:12;29.50;;;26.40;;
3726;SDS011;1879;45.876;12.300;2022-10-24T10:48:58;31.60;;;25.30;;
3726;SDS011;1879;45.876;12.300;2022-10-24T10:51:34;29.83;;;25.77;;
3726;SDS011;1879;45.876;12.300;2022-10-24T10:54:11;31.67;;;26.43;;
3726;SDS011;1879;45.876;12.300;2022-10-24T10:56:55;28.37;;;23.83;;
3726;SDS011;1879;45.876;12.300;2022-10-24T10:59:34;30.07;;;24.63;;
3726;SDS011;1879;45.876;12.300;2022-10-24T11:02:21;31.00;;;25.57;;
3726;SDS011;1879;45.876;12.300;2022-10-24T11:05:03;27.80;;;24.93;;
3726;SDS011;1879;45.876;12.300;2022-10-24T11:07:41;31.53;;;28.03;;
3726;SDS011;1879;45.876;12.300;2022-10-24T11:10:16;30.13;;;26.93;;
3726;SDS011;1879;45.876;12.300;2022-10-24T11:12:47;27.40;;;24.37;;
3726;SDS011;1879;45.876;12.300;2022-10-24T11:15:16;29.10;;;25.23;;
3726;SDS011;1879;45.876;12.300;2022-10-24T11:17:47;32.27;;;27.57;;
3726;SDS011;1879;45.876;12.300;2022-10-24T11:20:18;26.87;;;22.87;;
3726;SDS011;1879;45.876;12.300;2022-10-24T11:22:49;33.03;;;26.60;;
3726;SDS011;1879;45.876;12.300;2022-10-24T11:25:22;28.80;;;23.97;;
3726;SDS011;1879;45.876;12.300;2022-10-24T11:27:56;34.93;;;24.57;;
3726;SDS011;1879;45.876;12.300;2022-10-24T11:33:17;26.70;;;23.60;;
3726;SDS011;1879;45.876;12.300;2022-10-24T11:36:04;26.17;;;23.47;;
3726;SDS011;1879;45.876;12.300;2022-10-24T11:38:35;24.20;;;21.70;;
3726;SDS011;1879;45.876;12.300;2022-10-24T11:41:25;27.30;;;22.00;;
3726;SDS011;1879;45.876;12.300;2022-10-24T11:44:19;23.00;;;19.90;;
3726;SDS011;1879;45.876;12.300;2022-10-24T11:47:00;24.07;;;19.10;;
3726;SDS011;1879;45.876;12.300;2022-10-24T11:49:35;20.47;;;17.67;;
3726;SDS011;1879;45.876;12.300;2022-10-24T11:52:10;21.80;;;19.60;;
3726;SDS011;1879;45.876;12.300;2022-10-24T11:54:45;18.47;;;16.63;;
3726;SDS011;1879;45.876;12.300;2022-10-24T11:57:19;17.83;;;15.90;;
3726;SDS011;1879;45.876;12.300;2022-10-24T11:59:50;20.30;;;18.20;;
3726;SDS011;1879;45.876;12.300;2022-10-24T12:02:40;18.93;;;16.40;;
3726;SDS011;1879;45.876;12.300;2022-10-24T12:05:42;19.70;;;15.33;;
3726;SDS011;1879;45.876;12.300;2022-10-24T12:14:43;13.40;;;12.10;;
3726;SDS011;1879;45.876;12.300;2022-10-24T12:20:10;14.07;;;12.67;;
3726;SDS011;1879;45.876;12.300;2022-10-24T12:22:40;16.67;;;15.00;;
3726;SDS011;1879;45.876;12.300;2022-10-24T12:25:16;16.37;;;14.70;;
3726;SDS011;1879;45.876;12.300;2022-10-24T12:27:54;17.83;;;16.03;;
3726;SDS011;1879;45.876;12.300;2022-10-24T12:30:25;18.23;;;15.80;;
3726;SDS011;1879;45.876;12.300;2022-10-24T12:32:55;22.00;;;18.20;;
3726;SDS011;1879;45.876;12.300;2022-10-24T12:35:32;19.50;;;17.40;;
3726;SDS011;1879;45.876;12.300;2022-10-24T12:41:36;19.83;;;17.80;;
3726;SDS011;1879;45.876;12.300;2022-10-24T12:44:29;17.63;;;15.73;;
3726;SDS011;1879;45.876;12.300;2022-10-24T12:47:28;19.30;;;15.13;;
3726;SDS011;1879;45.876;12.300;2022-10-24T12:53:03;19.40;;;17.43;;
3726;SDS011;1879;45.876;12.300;2022-10-24T12:58:33;23.57;;;16.20;;
3726;SDS011;1879;45.876;12.300;2022-10-24T13:01:03;20.60;;;16.43;;
3726;SDS011;1879;45.876;12.300;2022-10-24T13:03:41;24.37;;;16.50;;
3726;SDS011;1879;45.876;12.300;2022-10-24T13:06:23;17.23;;;15.53;;
3726;SDS011;1879;45.876;12.300;2022-10-24T13:09:01;19.07;;;16.40;;
3726;SDS011;1879;45.876;12.300;2022-10-24T13:11:44;18.53;;;16.63;;
3726;SDS011;1879;45.876;12.300;2022-10-24T13:14:26;17.47;;;15.77;;
3726;SDS011;1879;45.876;12.300;2022-10-24T13:17:11;22.90;;;15.50;;
3726;SDS011;1879;45.876;12.300;2022-10-24T13:19:46;20.73;;;16.77;;
3726;SDS011;1879;45.876;12.300;2022-10-24T13:22:25;21.63;;;19.10;;
3726;SDS011;1879;45.876;12.300;2022-10-24T13:24:54;24.50;;;18.37;;
3726;SDS011;1879;45.876;12.300;2022-10-24T13:27:24;22.07;;;18.37;;
3726;SDS011;1879;45.876;12.300;2022-10-24T13:36:14;25.27;;;21.27;;
3726;SDS011;1879;45.876;12.300;2022-10-24T13:38:43;23.50;;;19.37;;
3726;SDS011;1879;45.876;12.300;2022-10-24T13:41:17;25.50;;;20.73;;
3726;SDS011;1879;45.876;12.300;2022-10-24T13:43:50;24.93;;;19.47;;
3726;SDS011;1879;45.876;12.300;2022-10-24T13:46:21;19.83;;;17.73;;
3726;SDS011;1879;45.876;12.300;2022-10-24T13:48:55;19.70;;;17.67;;
3726;SDS011;1879;45.876;12.300;2022-10-24T13:51:27;17.57;;;14.37;;
3726;SDS011;1879;45.876;12.300;2022-10-24T13:54:02;18.27;;;14.80;;
3726;SDS011;1879;45.876;12.300;2022-10-24T13:56:36;14.67;;;13.17;;
3726;SDS011;1879;45.876;12.300;2022-10-24T14:01:54;16.30;;;14.00;;
3726;SDS011;1879;45.876;12.300;2022-10-24T14:04:22;18.87;;;15.03;;
3726;SDS011;1879;45.876;12.300;2022-10-24T14:06:51;15.53;;;13.90;;
3726;SDS011;1879;45.876;12.300;2022-10-24T14:09:25;16.90;;;14.00;;
3726;SDS011;1879;45.876;12.300;2022-10-24T14:11:52;18.47;;;14.80;;
3726;SDS011;1879;45.876;12.300;2022-10-24T14:14:23;16.03;;;14.33;;
3726;SDS011;1879;45.876;12.300;2022-10-24T14:17:06;17.63;;;14.50;;
3726;SDS011;1879;45.876;12.300;2022-10-24T14:19:46;15.43;;;12.63;;
3726;SDS011;1879;45.876;12.300;2022-10-24T14:22:21;14.13;;;12.80;;
3726;SDS011;1879;45.876;12.300;2022-10-24T14:24:49;16.83;;;14.90;;
3726;SDS011;1879;45.876;12.300;2022-10-24T14:27:16;19.13;;;14.83;;
3726;SDS011;1879;45.876;12.300;2022-10-24T14:29:53;16.07;;;14.53;;
3726;SDS011;1879;45.876;12.300;2022-10-24T14:32:25;16.83;;;15.03;;
3726;SDS011;1879;45.876;12.300;2022-10-24T14:34:54;17.40;;;15.17;;
3726;SDS011;1879;45.876;12.300;2022-10-24T14:37:28;18.17;;;15.30;;
3726;SDS011;1879;45.876;12.300;2022-10-24T14:39:58;16.60;;;15.00;;
3726;SDS011;1879;45.876;12.300;2022-10-24T14:42:25;17.77;;;15.97;;
3726;SDS011;1879;45.876;12.300;2022-10-24T14:44:53;17.30;;;15.43;;
3726;SDS011;1879;45.876;12.300;2022-10-24T14:47:22;17.93;;;16.07;;
3726;SDS011;1879;45.876;12.300;2022-10-24T14:49:52;17.63;;;15.73;;
3726;SDS011;1879;45.876;12.300;2022-10-24T14:52:21;17.87;;;16.00;;
3726;SDS011;1879;45.876;12.300;2022-10-24T14:54:53;19.50;;;16.53;;
3726;SDS011;1879;45.876;12.300;2022-10-24T14:57:25;20.37;;;16.00;;
3726;SDS011;1879;45.876;12.300;2022-10-24T14:59:52;16.53;;;14.90;;
3726;SDS011;1879;45.876;12.300;2022-10-24T15:02:22;22.77;;;16.00;;
3726;SDS011;1879;45.876;12.300;2022-10-24T15:04:52;21.10;;;15.97;;
3726;SDS011;1879;45.876;12.300;2022-10-24T15:07:45;16.23;;;14.53;;
3726;SDS011;1879;45.876;12.300;2022-10-24T15:10:23;17.50;;;15.70;;
3726;SDS011;1879;45.876;12.300;2022-10-24T15:12:58;16.57;;;14.87;;
3726;SDS011;1879;45.876;12.300;2022-10-24T15:15:28;16.27;;;14.67;;
3726;SDS011;1879;45.876;12.300;2022-10-24T15:17:58;18.23;;;16.30;;
3726;SDS011;1879;45.876;12.300;2022-10-24T15:20:32;20.87;;;15.80;;
3726;SDS011;1879;45.876;12.300;2022-10-24T15:23:01;16.23;;;14.67;;
3726;SDS011;1879;45.876;12.300;2022-10-24T15:25:31;18.23;;;15.43;;
3726;SDS011;1879;45.876;12.300;2022-10-24T15:28:00;18.53;;;16.63;;
3726;SDS011;1879;45.876;12.300;2022-10-24T15:30:30;17.77;;;15.93;;
3726;SDS011;1879;45.876;12.300;2022-10-24T15:32:59;23.50;;;17.03;;
3726;SDS011;1879;45.876;12.300;2022-10-24T15:35:27;22.03;;;16.23;;